Time;durP1;ratioP1;P1;durP2;ratioP2;P2;SDS_P1;SDS_P2;PMS_P1;PMS_P2;Temp;Humidity;BMP_temperature;BMP_pressure;BME280_temperature;BME280_humidity;BME280_pressure;Samples;Min_cycle;Max_cycle;Signal;HPM_P1;HPM_P2
2023/11/10 00:00:44;;;;;;;23.70;22.40;;;;;;;;;;5061787;28;20521;-70
2023/11/10 00:03:11;;;;;;;23.10;21.90;;;;;;;;;;5065950;28;20119;-70
2023/11/10 00:05:37;;;;;;;22.50;21.30;;;;;;;;;;5060277;28;20083;-69
2023/11/10 00:08:03;;;;;;;21.75;20.55;;;;;;;;;;5063099;28;20052;-70
2023/11/10 00:10:28;;;;;;;21.60;20.40;;;;;;;;;;5060490;28;20119;-70
2023/11/10 00:12:55;;;;;;;22.05;20.85;;;;;;;;;;5060138;28;20136;-69
2023/11/10 00:15:22;;;;;;;22.63;21.42;;;;;;;;;;5059046;28;20571;-70
2023/11/10 00:17:49;;;;;;;22.55;21.35;;;;;;;;;;5060878;28;20120;-69
2023/11/10 00:20:14;;;;;;;23.88;22.58;;;;;;;;;;5064644;28;20394;-70
2023/11/10 00:22:40;;;;;;;22.33;21.13;;;;;;;;;;5063614;28;20114;-70
2023/11/10 00:25:06;;;;;;;23.88;22.58;;;;;;;;;;5064014;28;20787;-69
2023/11/10 00:27:32;;;;;;;25.13;23.73;;;;;;;;;;5059898;28;20032;-70
2023/11/10 00:29:58;;;;;;;24.35;23.02;;;;;;;;;;5066957;28;20028;-70
2023/11/10 00:32:25;;;;;;;23.92;22.63;;;;;;;;;;5062110;28;20029;-70
2023/11/10 00:34:50;;;;;;;25.13;23.83;;;;;;;;;;5059351;28;20475;-70
2023/11/10 00:37:17;;;;;;;23.65;22.35;;;;;;;;;;5063149;28;20040;-70
2023/11/10 00:39:42;;;;;;;23.90;22.25;;;;;;;;;;5060146;28;20045;-70
2023/11/10 00:42:07;;;;;;;22.17;20.98;;;;;;;;;;5060939;28;20036;-70
2023/11/10 00:44:33;;;;;;;23.85;22.55;;;;;;;;;;5062745;28;20449;-70
2023/11/10 00:46:59;;;;;;;23.90;22.60;;;;;;;;;;5060702;28;20103;-71
2023/11/10 00:49:24;;;;;;;25.13;23.80;;;;;;;;;;5063501;28;20462;-71
2023/11/10 00:51:50;;;;;;;24.30;22.90;;;;;;;;;;5060402;28;20039;-72
2023/11/10 00:54:16;;;;;;;25.60;24.20;;;;;;;;;;5063563;28;20029;-74
2023/11/10 00:56:42;;;;;;;26.45;25.05;;;;;;;;;;5059021;28;20520;-74
2023/11/10 00:59:07;;;;;;;24.83;23.52;;;;;;;;;;5059308;28;20089;-74
2023/11/10 01:01:35;;;;;;;26.20;24.73;;;;;;;;;;5064034;28;20036;-74
2023/11/10 01:04:01;;;;;;;24.90;23.40;;;;;;;;;;5061150;28;20416;-75
2023/11/10 01:06:27;;;;;;;24.42;23.13;;;;;;;;;;5060647;28;20058;-74
2023/11/10 01:08:53;;;;;;;28.10;26.60;;;;;;;;;;5063139;28;20473;-74
2023/11/10 01:11:18;;;;;;;26.05;24.65;;;;;;;;;;5060790;28;20040;-72
2023/11/10 01:13:44;;;;;;;24.77;23.48;;;;;;;;;;5058861;28;20044;-73
2023/11/10 01:16:09;;;;;;;26.67;25.17;;;;;;;;;;5061889;28;20024;-73
2023/11/10 01:18:35;;;;;;;26.20;24.80;;;;;;;;;;5061958;28;20029;-73
2023/11/10 01:21:01;;;;;;;24.95;23.65;;;;;;;;;;5058834;28;20048;-73
2023/11/10 01:23:26;;;;;;;25.23;23.92;;;;;;;;;;5065407;28;20115;-73
2023/11/10 01:25:52;;;;;;;25.88;24.48;;;;;;;;;;5058959;28;20033;-71
2023/11/10 01:28:20;;;;;;;24.85;23.33;;;;;;;;;;5063737;28;20295;-72
2023/11/10 01:30:46;;;;;;;27.73;25.85;;;;;;;;;;5057871;28;20040;-72
2023/11/10 01:33:12;;;;;;;26.73;25.23;;;;;;;;;;5062452;28;20043;-72
2023/11/10 01:35:37;;;;;;;25.48;23.77;;;;;;;;;;5060276;28;20465;-72
2023/11/10 01:38:03;;;;;;;26.15;24.75;;;;;;;;;;5059809;28;20036;-70
2023/11/10 01:40:31;;;;;;;25.88;24.48;;;;;;;;;;5061847;28;20033;-72
2023/11/10 01:42:56;;;;;;;24.70;23.40;;;;;;;;;;5058630;28;20036;-72
2023/11/10 01:45:22;;;;;;;24.55;23.25;;;;;;;;;;5061201;28;20039;-72
2023/11/10 01:47:47;;;;;;;25.10;23.77;;;;;;;;;;5067462;28;20036;-73
2023/11/10 01:50:13;;;;;;;24.77;23.45;;;;;;;;;;5065541;28;20028;-72
2023/11/10 01:52:41;;;;;;;26.63;25.02;;;;;;;;;;5063651;28;20032;-72
2023/11/10 01:55:11;;;;;;;23.35;22.13;;;;;;;;;;5068041;28;20044;-72
2023/11/10 01:57:38;;;;;;;23.13;21.88;;;;;;;;;;5065041;28;20040;-73
2023/11/10 02:00:04;;;;;;;25.40;23.80;;;;;;;;;;5067471;28;20132;-72
2023/11/10 02:02:29;;;;;;;24.45;23.15;;;;;;;;;;5065652;28;20112;-73
2023/11/10 02:04:55;;;;;;;24.15;22.80;;;;;;;;;;5065150;28;20131;-74
2023/11/10 02:07:21;;;;;;;24.83;22.77;;;;;;;;;;5064288;28;20039;-72
2023/11/10 02:09:47;;;;;;;22.77;21.58;;;;;;;;;;5061187;28;20036;-73
2023/11/10 02:12:12;;;;;;;22.38;21.17;;;;;;;;;;5068554;28;20037;-73
2023/11/10 02:14:38;;;;;;;22.77;21.58;;;;;;;;;;5064132;28;20625;-72
2023/11/10 02:17:03;;;;;;;22.98;21.60;;;;;;;;;;5061413;28;20126;-72
2023/11/10 02:19:29;;;;;;;22.33;21.13;;;;;;;;;;5060637;28;20441;-72
2023/11/10 02:21:54;;;;;;;22.23;20.92;;;;;;;;;;5063717;28;20020;-71
2023/11/10 02:24:22;;;;;;;23.23;22.00;;;;;;;;;;5063787;28;20042;-72
2023/11/10 02:26:48;;;;;;;22.15;20.95;;;;;;;;;;5063386;28;20016;-72
2023/11/10 02:29:15;;;;;;;23.83;21.92;;;;;;;;;;5064909;28;20059;-72
2023/11/10 02:31:40;;;;;;;23.13;21.92;;;;;;;;;;5061402;28;20028;-71
2023/11/10 02:34:06;;;;;;;23.00;21.80;;;;;;;;;;5064044;28;20036;-71
2023/11/10 02:36:32;;;;;;;22.20;21.00;;;;;;;;;;5067416;28;20029;-72
2023/11/10 02:38:58;;;;;;;21.70;20.50;;;;;;;;;;5061587;28;20198;-71
2023/11/10 02:41:23;;;;;;;21.20;20.00;;;;;;;;;;5062576;28;20548;-72
2023/11/10 02:43:48;;;;;;;20.92;19.83;;;;;;;;;;5059638;28;20044;-71
2023/11/10 02:46:14;;;;;;;22.15;20.95;;;;;;;;;;5063882;28;20025;-71
2023/11/10 02:48:39;;;;;;;22.90;21.50;;;;;;;;;;5064465;28;20025;-71
2023/11/10 02:51:05;;;;;;;22.73;21.52;;;;;;;;;;5063814;28;20696;-71
2023/11/10 02:53:31;;;;;;;22.50;21.20;;;;;;;;;;5061937;28;20029;-71
2023/11/10 02:55:56;;;;;;;21.40;20.27;;;;;;;;;;5058767;28;20047;-71
2023/11/10 02:58:22;;;;;;;22.65;21.45;;;;;;;;;;5063033;28;20040;-71
2023/11/10 03:00:47;;;;;;;22.88;21.55;;;;;;;;;;5058157;28;20020;-72
2023/11/10 03:03:13;;;;;;;21.60;20.40;;;;;;;;;;5064464;28;20033;-71
2023/11/10 03:05:41;;;;;;;21.52;20.33;;;;;;;;;;5058826;28;20047;-71
2023/11/10 03:08:07;;;;;;;23.70;22.42;;;;;;;;;;5062036;28;20041;-71
2023/11/10 03:10:32;;;;;;;23.98;22.58;;;;;;;;;;5065219;28;20043;-71
2023/11/10 03:12:58;;;;;;;24.13;22.83;;;;;;;;;;5058302;28;20032;-71
2023/11/10 03:15:24;;;;;;;23.15;21.95;;;;;;;;;;5066049;28;20354;-69
2023/11/10 03:17:49;;;;;;;21.52;20.35;;;;;;;;;;5060983;28;20067;-68
2023/11/10 03:20:15;;;;;;;21.27;20.10;;;;;;;;;;5064454;28;20110;-70
2023/11/10 03:22:42;;;;;;;22.98;21.77;;;;;;;;;;5062198;28;20634;-71
2023/11/10 03:25:08;;;;;;;23.05;21.75;;;;;;;;;;5060343;28;20071;-70
2023/11/10 03:27:33;;;;;;;22.00;20.80;;;;;;;;;;5060903;28;20025;-71
2023/11/10 03:29:58;;;;;;;22.80;21.60;;;;;;;;;;5061919;28;20657;-71
2023/11/10 03:32:24;;;;;;;23.25;22.05;;;;;;;;;;5065223;28;20468;-72
2023/11/10 03:34:50;;;;;;;24.42;23.00;;;;;;;;;;5068406;28;20028;-72
2023/11/10 03:37:15;;;;;;;23.63;22.08;;;;;;;;;;5060281;28;20818;-71
2023/11/10 03:39:41;;;;;;;23.02;21.73;;;;;;;;;;5067229;28;20668;-74
2023/11/10 03:42:07;;;;;;;23.30;22.00;;;;;;;;;;5064007;28;20458;-75
2023/11/10 03:44:33;;;;;;;22.17;20.98;;;;;;;;;;5058360;28;20036;-74
2023/11/10 03:47:01;;;;;;;24.73;23.42;;;;;;;;;;5063921;28;20122;-74
2023/11/10 03:49:26;;;;;;;25.00;22.92;;;;;;;;;;5063099;28;20094;-72
2023/11/10 03:51:52;;;;;;;24.27;22.98;;;;;;;;;;5060363;28;20079;-74
2023/11/10 03:54:18;;;;;;;23.60;22.30;;;;;;;;;;5062422;28;20068;-73
2023/11/10 03:56:44;;;;;;;24.90;23.60;;;;;;;;;;5059917;28;20033;-74
2023/11/10 03:59:10;;;;;;;24.23;22.92;;;;;;;;;;5059619;28;20489;-71
2023/11/10 04:01:36;;;;;;;24.38;23.05;;;;;;;;;;5060454;28;20040;-72
2023/11/10 04:04:02;;;;;;;24.40;23.10;;;;;;;;;;5058383;28;20037;-72
2023/11/10 04:06:28;;;;;;;23.90;22.60;;;;;;;;;;5062732;28;20032;-74
2023/11/10 04:08:54;;;;;;;25.77;24.27;;;;;;;;;;5060791;28;20120;-74
2023/11/10 04:11:19;;;;;;;24.02;22.73;;;;;;;;;;5066407;28;20043;-74
2023/11/10 04:13:45;;;;;;;24.75;23.45;;;;;;;;;;5061476;28;20028;-74
2023/11/10 04:16:20;;;;;;;25.42;24.10;;;;;;;;;;5058510;28;20149;-73
2023/11/10 04:18:49;;;;;;;24.40;22.95;;;;;;;;;;5061746;28;20029;-74
2023/11/10 04:21:16;;;;;;;26.48;25.08;;;;;;;;;;5062724;28;20063;-71
2023/11/10 04:23:41;;;;;;;24.75;23.45;;;;;;;;;;5066389;28;20078;-71
2023/11/10 04:26:07;;;;;;;25.02;23.63;;;;;;;;;;5061069;28;20052;-71
2023/11/10 04:28:36;;;;;;;25.83;24.42;;;;;;;;;;5062038;28;20089;-73
2023/11/10 04:31:01;;;;;;;24.15;22.85;;;;;;;;;;5062684;28;20309;-72
2023/11/10 04:33:30;;;;;;;26.08;24.48;;;;;;;;;;5060337;28;20465;-72
2023/11/10 04:35:55;;;;;;;24.80;23.40;;;;;;;;;;5064773;28;20044;-72
2023/11/10 04:38:21;;;;;;;26.25;24.85;;;;;;;;;;5066111;28;20029;-67
2023/11/10 04:40:47;;;;;;;24.25;22.85;;;;;;;;;;5059306;28;20803;-66
2023/11/10 04:43:12;;;;;;;24.67;23.38;;;;;;;;;;5063391;28;20032;-66
2023/11/10 04:45:38;;;;;;;23.58;22.30;;;;;;;;;;5061091;28;20039;-71
2023/11/10 04:48:04;;;;;;;24.67;23.38;;;;;;;;;;5062187;28;20055;-65
2023/11/10 04:50:29;;;;;;;23.98;22.45;;;;;;;;;;5063460;28;20025;-65
2023/11/10 04:52:55;;;;;;;24.23;22.92;;;;;;;;;;5062748;28;20032;-65
2023/11/10 04:55:20;;;;;;;24.75;23.33;;;;;;;;;;5062855;28;20036;-65
2023/11/10 04:57:46;;;;;;;25.05;23.75;;;;;;;;;;5061152;28;20358;-71
2023/11/10 05:00:13;;;;;;;25.02;23.42;;;;;;;;;;5062466;28;20565;-65
2023/11/10 05:02:39;;;;;;;24.33;23.02;;;;;;;;;;5064189;28;20048;-64
2023/11/10 05:05:06;;;;;;;25.10;23.80;;;;;;;;;;5063830;28;20116;-64
2023/11/10 05:07:31;;;;;;;24.77;23.48;;;;;;;;;;5061101;28;20055;-63
2023/11/10 05:10:00;;;;;;;23.98;22.67;;;;;;;;;;5063543;28;20455;-63
2023/11/10 05:12:27;;;;;;;26.77;25.38;;;;;;;;;;5061801;28;20040;-64
2023/11/10 05:14:52;;;;;;;24.77;23.48;;;;;;;;;;5062805;28;20652;-65
2023/11/10 05:17:17;;;;;;;25.55;24.20;;;;;;;;;;5063648;28;20051;-65
2023/11/10 05:19:43;;;;;;;25.52;24.20;;;;;;;;;;5062274;28;20428;-68
2023/11/10 05:22:08;;;;;;;26.55;25.15;;;;;;;;;;5061159;28;20079;-64
2023/11/10 05:24:33;;;;;;;25.75;24.38;;;;;;;;;;5061463;28;20090;-63
2023/11/10 05:26:59;;;;;;;26.80;25.40;;;;;;;;;;5065968;28;20025;-64
2023/11/10 05:29:24;;;;;;;24.92;23.52;;;;;;;;;;5061056;28;20136;-70
2023/11/10 05:31:52;;;;;;;26.92;25.52;;;;;;;;;;5057717;28;20024;-69
2023/11/10 05:34:17;;;;;;;24.25;22.95;;;;;;;;;;5061767;28;20096;-70
2023/11/10 05:36:43;;;;;;;26.85;25.45;;;;;;;;;;5058016;28;20036;-64
2023/11/10 05:39:08;;;;;;;24.05;22.75;;;;;;;;;;5062916;28;20108;-65
2023/11/10 05:41:34;;;;;;;25.50;24.15;;;;;;;;;;5063253;28;20060;-65
2023/11/10 05:44:00;;;;;;;24.83;23.52;;;;;;;;;;5062446;28;20025;-65
2023/11/10 05:46:25;;;;;;;23.27;22.00;;;;;;;;;;5064164;28;20032;-69
2023/11/10 05:48:51;;;;;;;25.50;24.10;;;;;;;;;;5061740;28;20028;-69
2023/11/10 05:51:16;;;;;;;23.80;22.50;;;;;;;;;;5061615;28;20472;-69
2023/11/10 05:53:41;;;;;;;25.15;23.85;;;;;;;;;;5064728;28;20035;-65
2023/11/10 05:56:09;;;;;;;25.15;23.80;;;;;;;;;;5063538;28;20029;-64
2023/11/10 05:58:34;;;;;;;24.35;22.75;;;;;;;;;;5061426;28;20037;-64
2023/11/10 06:00:59;;;;;;;23.83;22.52;;;;;;;;;;5062293;28;20089;-69
2023/11/10 06:03:27;;;;;;;23.60;22.35;;;;;;;;;;5061859;28;20369;-64
2023/11/10 06:05:55;;;;;;;25.30;23.90;;;;;;;;;;5065043;28;20040;-64
2023/11/10 06:08:24;;;;;;;24.55;23.05;;;;;;;;;;5058189;28;20068;-69
2023/11/10 06:10:52;;;;;;;25.17;23.70;;;;;;;;;;5069454;28;20040;-69
2023/11/10 06:13:21;;;;;;;24.17;22.88;;;;;;;;;;5062502;28;20040;-63
2023/11/10 06:15:47;;;;;;;24.38;23.08;;;;;;;;;;5062561;28;20539;-64
2023/11/10 06:18:12;;;;;;;25.33;23.98;;;;;;;;;;5062911;28;20108;-69
2023/11/10 06:20:38;;;;;;;24.40;23.10;;;;;;;;;;5059322;28;20036;-66
2023/11/10 06:23:03;;;;;;;25.05;23.65;;;;;;;;;;5062793;28;20037;-63
2023/11/10 06:25:29;;;;;;;24.42;23.13;;;;;;;;;;5061763;28;20055;-63
2023/11/10 06:27:55;;;;;;;23.10;21.90;;;;;;;;;;5059591;28;20032;-69
2023/11/10 06:30:20;;;;;;;23.55;22.20;;;;;;;;;;5062371;28;20037;-64
2023/11/10 06:32:46;;;;;;;23.42;21.80;;;;;;;;;;5067640;28;20043;-69
2023/11/10 06:35:12;;;;;;;26.90;23.45;;;;;;;;;;5063453;28;20595;-63
2023/11/10 06:37:37;;;;;;;22.80;21.60;;;;;;;;;;5065941;28;20064;-64
2023/11/10 06:40:03;;;;;;;22.92;21.73;;;;;;;;;;5065622;28;20049;-64
2023/11/10 06:42:33;;;;;;;22.30;21.10;;;;;;;;;;5066076;28;20035;-68
2023/11/10 06:45:01;;;;;;;23.33;22.08;;;;;;;;;;5064697;28;20029;-69
2023/11/10 06:47:26;;;;;;;23.73;22.42;;;;;;;;;;5065761;28;20115;-64
2023/11/10 06:49:51;;;;;;;21.95;20.75;;;;;;;;;;5066133;28;20119;-69
2023/11/10 06:52:17;;;;;;;24.15;22.80;;;;;;;;;;5065863;28;20040;-69
2023/11/10 06:54:42;;;;;;;22.70;21.48;;;;;;;;;;5064493;28;20059;-64
2023/11/10 06:57:11;;;;;;;23.50;22.27;;;;;;;;;;5067000;28;20041;-64
2023/11/10 06:59:38;;;;;;;22.98;21.67;;;;;;;;;;5064276;28;20095;-64
2023/11/10 07:02:03;;;;;;;22.73;21.52;;;;;;;;;;5066286;28;20040;-69
2023/11/10 07:04:29;;;;;;;22.73;21.42;;;;;;;;;;5064190;28;20768;-69
2023/11/10 07:06:55;;;;;;;24.50;22.15;;;;;;;;;;5064859;28;20037;-63
2023/11/10 07:09:21;;;;;;;20.75;19.65;;;;;;;;;;5068792;28;20040;-64
2023/11/10 07:11:48;;;;;;;21.92;20.73;;;;;;;;;;5069363;28;20032;-64
2023/11/10 07:14:13;;;;;;;21.33;20.20;;;;;;;;;;5070576;28;20450;-64
2023/11/10 07:16:39;;;;;;;21.83;20.63;;;;;;;;;;5063012;28;20040;-62
2023/11/10 07:19:05;;;;;;;20.42;19.33;;;;;;;;;;5064410;28;20483;-63
2023/11/10 07:21:30;;;;;;;21.27;20.17;;;;;;;;;;5067172;28;20044;-62
2023/11/10 07:23:55;;;;;;;22.55;21.35;;;;;;;;;;5067746;28;20059;-61
2023/11/10 07:26:21;;;;;;;23.02;21.83;;;;;;;;;;5068952;28;20029;-62
2023/11/10 07:28:47;;;;;;;24.15;22.85;;;;;;;;;;5066571;28;20029;-62
2023/11/10 07:31:12;;;;;;;22.23;21.02;;;;;;;;;;5068144;28;20528;-62
2023/11/10 07:33:37;;;;;;;22.85;21.65;;;;;;;;;;5071202;28;20039;-68
2023/11/10 07:36:04;;;;;;;23.77;22.48;;;;;;;;;;5064033;28;20470;-68
2023/11/10 07:38:29;;;;;;;23.83;22.52;;;;;;;;;;5067027;28;20037;-68
2023/11/10 07:40:55;;;;;;;22.92;21.73;;;;;;;;;;5069041;28;20116;-68
2023/11/10 07:43:20;;;;;;;23.80;22.50;;;;;;;;;;5064102;28;20036;-68
2023/11/10 07:45:46;;;;;;;24.40;23.00;;;;;;;;;;5062505;28;20033;-67
2023/11/10 07:48:13;;;;;;;22.85;21.65;;;;;;;;;;5064441;28;20095;-67
2023/11/10 07:50:39;;;;;;;24.60;23.30;;;;;;;;;;5060108;28;20101;-68
2023/11/10 07:53:05;;;;;;;23.50;22.25;;;;;;;;;;5062293;28;20410;-68
2023/11/10 07:55:31;;;;;;;22.83;21.63;;;;;;;;;;5063915;28;20063;-68
2023/11/10 07:57:56;;;;;;;22.98;21.77;;;;;;;;;;5065061;28;20122;-70
2023/11/10 08:00:22;;;;;;;22.33;21.13;;;;;;;;;;5062877;28;20029;-67
2023/11/10 08:02:53;;;;;;;22.73;21.42;;;;;;;;;;5065231;28;20063;-67
2023/11/10 08:05:20;;;;;;;22.70;21.50;;;;;;;;;;5065043;28;20031;-67
2023/11/10 08:07:46;;;;;;;22.35;21.00;;;;;;;;;;5065744;28;20283;-68
2023/11/10 08:10:13;;;;;;;24.00;22.70;;;;;;;;;;5067362;28;20350;-68
2023/11/10 08:12:39;;;;;;;22.70;21.50;;;;;;;;;;5064299;28;20182;-63
2023/11/10 08:15:05;;;;;;;22.73;21.52;;;;;;;;;;5063213;28;20120;-63
2023/11/10 08:17:30;;;;;;;25.33;23.98;;;;;;;;;;5064340;28;20477;-67
2023/11/10 08:19:56;;;;;;;23.55;22.33;;;;;;;;;;5064138;28;20146;-68
2023/11/10 08:22:22;;;;;;;23.90;22.60;;;;;;;;;;5062516;28;20044;-66
2023/11/10 08:24:48;;;;;;;24.38;23.08;;;;;;;;;;5062296;28;20043;-67
2023/11/10 08:27:14;;;;;;;23.38;22.13;;;;;;;;;;5063726;28;20033;-67
2023/11/10 08:29:39;;;;;;;21.55;20.35;;;;;;;;;;5063921;28;20047;-62
2023/11/10 08:32:05;;;;;;;21.58;20.30;;;;;;;;;;5063036;28;20119;-62
2023/11/10 08:34:31;;;;;;;19.85;18.75;;;;;;;;;;5063350;28;20050;-68
2023/11/10 08:36:57;;;;;;;20.10;19.00;;;;;;;;;;5063793;28;20105;-67
2023/11/10 08:39:22;;;;;;;20.52;19.42;;;;;;;;;;5065505;28;20517;-67
2023/11/10 08:41:48;;;;;;;21.58;20.38;;;;;;;;;;5065545;28;20027;-67
2023/11/10 08:44:15;;;;;;;21.88;20.67;;;;;;;;;;5067606;28;20036;-62
2023/11/10 08:46:41;;;;;;;21.85;20.65;;;;;;;;;;5062505;28;20343;-62
2023/11/10 08:49:07;;;;;;;22.33;21.10;;;;;;;;;;5066931;28;20032;-62
2023/11/10 08:51:32;;;;;;;21.98;20.77;;;;;;;;;;5063937;28;20418;-68
2023/11/10 08:53:58;;;;;;;21.63;20.45;;;;;;;;;;5064846;28;20028;-68
2023/11/10 08:56:23;;;;;;;21.52;20.33;;;;;;;;;;5063416;28;20127;-68
2023/11/10 08:58:48;;;;;;;21.55;20.38;;;;;;;;;;5065090;28;20060;-68
2023/11/10 09:01:14;;;;;;;20.80;19.70;;;;;;;;;;5061063;28;20062;-67
2023/11/10 09:03:39;;;;;;;22.27;21.08;;;;;;;;;;5064263;28;20119;-62
2023/11/10 09:06:05;;;;;;;22.25;21.05;;;;;;;;;;5061595;28;20028;-62
2023/11/10 09:08:31;;;;;;;20.95;19.85;;;;;;;;;;5064480;28;20037;-62
2023/11/10 09:10:57;;;;;;;20.60;19.50;;;;;;;;;;5064681;28;20029;-69
2023/11/10 09:13:22;;;;;;;19.77;18.67;;;;;;;;;;5063075;28;20189;-69
2023/11/10 09:15:47;;;;;;;20.75;19.55;;;;;;;;;;5066072;28;20203;-68
2023/11/10 09:18:13;;;;;;;22.95;21.10;;;;;;;;;;5062622;28;20025;-62
2023/11/10 09:20:39;;;;;;;21.20;20.00;;;;;;;;;;5064283;28;20036;-62
2023/11/10 09:23:04;;;;;;;22.90;21.70;;;;;;;;;;5065421;28;20458;-62
2023/11/10 09:25:30;;;;;;;20.98;19.83;;;;;;;;;;5061400;28;20017;-63
2023/11/10 09:27:56;;;;;;;22.02;20.83;;;;;;;;;;5062921;28;20041;-67
2023/11/10 09:30:24;;;;;;;20.65;19.55;;;;;;;;;;5061645;28;20525;-69
2023/11/10 09:32:50;;;;;;;21.50;20.33;;;;;;;;;;5064959;28;20035;-68
2023/11/10 09:35:16;;;;;;;21.88;20.67;;;;;;;;;;5065477;28;20469;-69
2023/11/10 09:37:46;;;;;;;20.52;19.42;;;;;;;;;;5062960;28;20048;-62
2023/11/10 09:40:11;;;;;;;22.73;21.52;;;;;;;;;;5064274;28;20051;-62
2023/11/10 09:42:38;;;;;;;22.30;21.10;;;;;;;;;;5064696;28;20025;-69
2023/11/10 09:45:05;;;;;;;20.55;19.45;;;;;;;;;;5063584;28;20047;-69
2023/11/10 09:47:30;;;;;;;21.55;20.40;;;;;;;;;;5060708;28;20039;-63
2023/11/10 09:49:56;;;;;;;21.85;20.65;;;;;;;;;;5064845;28;20404;-62
2023/11/10 09:52:24;;;;;;;24.40;23.10;;;;;;;;;;5063788;28;20689;-62
2023/11/10 09:54:54;;;;;;;23.27;21.98;;;;;;;;;;5064416;28;20031;-63
2023/11/10 09:57:21;;;;;;;23.13;21.58;;;;;;;;;;5065341;28;20025;-63
2023/11/10 09:59:47;;;;;;;22.95;21.50;;;;;;;;;;5064493;28;20036;-70
2023/11/10 10:02:13;;;;;;;23.73;21.83;;;;;;;;;;5063602;28;20120;-69
2023/11/10 10:04:42;;;;;;;21.90;20.70;;;;;;;;;;5063973;28;20132;-69
2023/11/10 10:07:12;;;;;;;21.00;19.90;;;;;;;;;;5063537;28;20043;-63
2023/11/10 10:09:38;;;;;;;22.70;21.48;;;;;;;;;;5064556;28;20024;-70
2023/11/10 10:12:05;;;;;;;22.73;21.42;;;;;;;;;;5066136;28;20036;-70
2023/11/10 10:14:31;;;;;;;21.58;20.38;;;;;;;;;;5066532;28;20708;-70
2023/11/10 10:16:57;;;;;;;22.23;21.02;;;;;;;;;;5063525;28;20040;-64
2023/11/10 10:19:24;;;;;;;20.17;19.08;;;;;;;;;;5066482;28;20695;-64
2023/11/10 10:21:49;;;;;;;20.67;19.58;;;;;;;;;;5064871;28;20724;-70
2023/11/10 10:24:15;;;;;;;20.83;19.73;;;;;;;;;;5068053;28;20059;-70
2023/11/10 10:26:40;;;;;;;21.55;20.38;;;;;;;;;;5065516;28;20024;-71
2023/11/10 10:29:07;;;;;;;22.00;20.80;;;;;;;;;;5067067;28;20036;-71
2023/11/10 10:31:32;;;;;;;21.60;20.40;;;;;;;;;;5064093;28;20033;-64
2023/11/10 10:34:02;;;;;;;21.38;20.17;;;;;;;;;;5067568;28;20047;-64
2023/11/10 10:36:27;;;;;;;21.42;20.25;;;;;;;;;;5063032;28;20560;-64
2023/11/10 10:38:53;;;;;;;20.70;19.60;;;;;;;;;;5067683;28;20032;-64
2023/11/10 10:41:25;;;;;;;22.75;21.00;;;;;;;;;;5063772;28;20035;-72
2023/11/10 10:43:52;;;;;;;19.77;18.67;;;;;;;;;;5070117;28;20521;-71
2023/11/10 10:46:21;;;;;;;21.58;20.00;;;;;;;;;;5066749;28;20125;-72
2023/11/10 10:48:51;;;;;;;22.35;21.15;;;;;;;;;;5066381;28;20033;-64
2023/11/10 10:51:17;;;;;;;22.50;21.20;;;;;;;;;;5066795;28;20331;-64
2023/11/10 10:53:47;;;;;;;22.17;20.98;;;;;;;;;;5068526;28;20025;-64
2023/11/10 10:56:14;;;;;;;20.52;19.42;;;;;;;;;;5070740;28;20393;-64
2023/11/10 10:58:40;;;;;;;20.30;19.20;;;;;;;;;;5064081;28;20037;-64
2023/11/10 11:01:08;;;;;;;21.52;20.33;;;;;;;;;;5067061;28;20040;-64
2023/11/10 11:04:07;;;;;;;20.90;19.80;;;;;;;;;;5065520;28;20033;-64
2023/11/10 11:07:21;;;;;;;22.30;21.10;;;;;;;;;;5064778;28;20044;-71
2023/11/10 11:10:20;;;;;;;22.42;20.75;;;;;;;;;;5075438;28;20806;-72
2023/11/10 11:13:28;;;;;;;24.73;21.90;;;;;;;;;;5068948;28;20048;-72
2023/11/10 11:16:30;;;;;;;20.70;19.60;;;;;;;;;;5066043;28;20048;-71
2023/11/10 11:19:25;;;;;;;20.70;19.60;;;;;;;;;;5065608;28;20411;-72
2023/11/10 11:21:52;;;;;;;21.17;20.08;;;;;;;;;;5065501;28;20106;-71
2023/11/10 11:24:22;;;;;;;22.75;21.55;;;;;;;;;;5067309;28;20374;-71
2023/11/10 11:26:58;;;;;;;20.55;19.42;;;;;;;;;;5065980;28;20090;-71
2023/11/10 11:29:25;;;;;;;20.80;19.70;;;;;;;;;;5066346;28;20055;-72
2023/11/10 11:31:51;;;;;;;21.17;20.08;;;;;;;;;;5065221;28;20089;-71
2023/11/10 11:34:19;;;;;;;22.08;20.88;;;;;;;;;;5067878;28;20036;-63
2023/11/10 11:36:49;;;;;;;22.35;21.15;;;;;;;;;;5062144;28;20443;-63
2023/11/10 11:39:17;;;;;;;21.63;20.42;;;;;;;;;;5072718;28;20037;-63
2023/11/10 11:41:47;;;;;;;22.73;21.52;;;;;;;;;;5068420;28;20024;-63
2023/11/10 11:44:21;;;;;;;22.65;21.35;;;;;;;;;;5063324;28;20032;-63
2023/11/10 11:46:52;;;;;;;20.15;19.05;;;;;;;;;;5064349;28;20493;-63
2023/11/10 11:49:19;;;;;;;21.98;20.67;;;;;;;;;;5065272;28;20386;-71
2023/11/10 11:51:45;;;;;;;21.55;20.35;;;;;;;;;;5064016;28;20120;-71
2023/11/10 11:54:11;;;;;;;20.98;19.88;;;;;;;;;;5065855;28;20436;-63
2023/11/10 11:56:36;;;;;;;20.70;19.60;;;;;;;;;;5065083;28;20485;-63
2023/11/10 11:59:03;;;;;;;23.35;22.05;;;;;;;;;;5067867;28;20050;-71
2023/11/10 12:01:28;;;;;;;21.27;20.17;;;;;;;;;;5066016;28;20029;-70
2023/11/10 12:03:53;;;;;;;21.23;20.08;;;;;;;;;;5061843;28;20029;-63
2023/11/10 12:06:19;;;;;;;21.60;20.40;;;;;;;;;;5064029;28;20705;-62
2023/11/10 12:08:47;;;;;;;21.58;20.27;;;;;;;;;;5065495;28;20051;-70
2023/11/10 12:11:12;;;;;;;20.63;19.45;;;;;;;;;;5067289;28;20081;-61
2023/11/10 12:13:38;;;;;;;21.70;20.50;;;;;;;;;;5063534;28;20047;-62
2023/11/10 12:16:04;;;;;;;21.50;20.33;;;;;;;;;;5065795;28;20043;-62
2023/11/10 12:18:31;;;;;;;21.75;20.55;;;;;;;;;;5066779;28;20041;-63
2023/11/10 12:20:58;;;;;;;22.58;21.27;;;;;;;;;;5066839;28;20033;-71
2023/11/10 12:23:23;;;;;;;22.58;21.38;;;;;;;;;;5067024;28;20032;-70
2023/11/10 12:25:51;;;;;;;21.17;20.00;;;;;;;;;;5063271;28;20033;-70
2023/11/10 12:28:18;;;;;;;21.98;20.77;;;;;;;;;;5064803;28;20137;-70
2023/11/10 12:30:43;;;;;;;22.20;21.00;;;;;;;;;;5063401;28;20036;-71
2023/11/10 12:33:11;;;;;;;22.42;21.23;;;;;;;;;;5062818;28;20040;-70
2023/11/10 12:35:39;;;;;;;20.67;19.58;;;;;;;;;;5065121;28;20391;-61
2023/11/10 12:38:06;;;;;;;20.77;19.67;;;;;;;;;;5067710;28;20043;-70
2023/11/10 12:40:31;;;;;;;20.27;19.17;;;;;;;;;;5064025;28;20036;-71
2023/11/10 12:42:58;;;;;;;21.83;20.60;;;;;;;;;;5067384;28;20047;-70
2023/11/10 12:45:24;;;;;;;18.20;17.10;;;;;;;;;;5065522;28;20470;-70
2023/11/10 12:47:52;;;;;;;16.55;15.65;;;;;;;;;;5050236;28;20024;-70
2023/11/10 12:50:19;;;;;;;17.83;16.83;;;;;;;;;;5063373;28;20027;-62
2023/11/10 12:52:51;;;;;;;18.98;17.77;;;;;;;;;;5060618;28;20028;-62
2023/11/10 12:55:16;;;;;;;15.80;14.77;;;;;;;;;;5061910;28;20040;-62
2023/11/10 12:57:41;;;;;;;16.80;15.90;;;;;;;;;;5066313;28;20040;-71
2023/11/10 13:00:13;;;;;;;17.92;16.92;;;;;;;;;;5064532;28;20042;-61
2023/11/10 13:02:43;;;;;;;18.27;17.27;;;;;;;;;;5063822;28;20028;-62
2023/11/10 13:05:10;;;;;;;17.75;16.75;;;;;;;;;;5063438;28;20266;-61
2023/11/10 13:07:36;;;;;;;17.60;16.60;;;;;;;;;;5064056;28;20495;-62
2023/11/10 13:10:06;;;;;;;18.30;17.30;;;;;;;;;;5061463;28;20116;-62
2023/11/10 13:12:33;;;;;;;17.75;16.75;;;;;;;;;;5062727;28;20513;-62
2023/11/10 13:14:59;;;;;;;16.15;15.25;;;;;;;;;;5068710;28;20115;-62
2023/11/10 13:17:26;;;;;;;17.75;16.75;;;;;;;;;;5063388;28;20041;-62
2023/11/10 13:19:51;;;;;;;18.30;17.30;;;;;;;;;;5063099;28;20043;-62
2023/11/10 13:22:19;;;;;;;18.15;17.10;;;;;;;;;;5065357;28;20032;-62
2023/11/10 13:24:46;;;;;;;17.42;16.42;;;;;;;;;;5063118;28;20082;-62
2023/11/10 13:27:12;;;;;;;18.33;17.33;;;;;;;;;;5065192;28;20032;-62
2023/11/10 13:29:42;;;;;;;17.85;16.63;;;;;;;;;;5061814;28;20067;-63
2023/11/10 13:32:12;;;;;;;17.90;16.90;;;;;;;;;;5065598;28;20056;-63
2023/11/10 13:34:39;;;;;;;18.67;17.38;;;;;;;;;;5064499;28;20039;-63
2023/11/10 13:37:08;;;;;;;18.95;17.95;;;;;;;;;;5063977;28;20105;-62
2023/11/10 13:39:34;;;;;;;18.05;17.05;;;;;;;;;;5061257;28;20089;-63
2023/11/10 13:41:59;;;;;;;17.88;16.88;;;;;;;;;;5070203;28;20033;-63
2023/11/10 13:44:25;;;;;;;20.25;19.05;;;;;;;;;;5066869;28;20047;-62
2023/11/10 13:46:50;;;;;;;17.85;16.75;;;;;;;;;;5069054;28;20036;-62
2023/11/10 13:49:16;;;;;;;20.75;19.58;;;;;;;;;;5069377;28;20039;-61
2023/11/10 13:51:42;;;;;;;20.10;18.98;;;;;;;;;;5067253;28;20036;-62
2023/11/10 13:54:07;;;;;;;20.20;19.10;;;;;;;;;;5065553;28;20031;-62
2023/11/10 13:56:36;;;;;;;19.65;18.55;;;;;;;;;;5068448;28;20701;-62
2023/11/10 13:59:01;;;;;;;20.20;19.10;;;;;;;;;;5062916;28;20029;-63
2023/11/10 14:01:26;;;;;;;21.02;19.80;;;;;;;;;;5067194;28;20606;-62
2023/11/10 14:03:52;;;;;;;23.25;22.05;;;;;;;;;;5070260;28;20024;-62
2023/11/10 14:06:17;;;;;;;19.88;18.77;;;;;;;;;;5066238;28;20116;-62
2023/11/10 14:08:43;;;;;;;19.42;18.30;;;;;;;;;;5064529;28;21420;-62
2023/11/10 14:11:08;;;;;;;19.02;17.95;;;;;;;;;;5068168;28;20043;-62
2023/11/10 14:13:38;;;;;;;19.40;18.33;;;;;;;;;;5071340;28;20029;-62